Restless — WDC7445 — position and weather

sailwx.info

Track history (hours):
 
Tides and Currents Weather Stations Pressure Air Temp Water Temp Dewpoint Dewpoint Depression Visibility Wind Speed Wind Dir Waves Ship Positions

Restless

Owner: Barrow, Ronnie L, Shoreline, WA. More information available from US FCC via Universal Licensing System and Coast Guard Vessel Documentation Center.

Last reported at 2018-Jun-19 14:48 UTC. Time now 2018-Jun-22 03:15 UTC.
Position N 48°43' W 123°22'.

Length 12 m.

Type: Sailing vessel. MMSI: 367071510.

Date/timePositionNaut miles runAvg speedWind from/ knotsBaromVisibWave heightAir tempDewpointWater temp
2018-Jun-19 14:48N 48°43' W 123°22'4 0.1
2018-Jun-17 21:04N 48°39' W 123°23'0 5.8
2018-Jun-17 20:59N 48°39' W 123°22'14 4.7
2018-Jun-17 18:00N 48°35' W 123°02'1 2.0
2018-Jun-17 17:29N 48°34' W 123°00'1 2.6
2018-Jun-17 17:00N 48°33' W 122°60'1 1.8
2018-Jun-17 16:17N 48°32' W 123°00'42 1.7
2018-Jun-16 15:57N 47°56' W 122°29'3 7.3
2018-Jun-16 15:29N 47°53' W 122°27'3 6.1
2018-Jun-16 14:57N 47°50' W 122°25'2 2.6
2018-Jun-16 14:21N 47°49' W 122°23'0 0.0
2018-Jun-16 14:00N 47°49' W 122°23'0 0.0
2018-Jun-16 13:30N 47°49' W 122°23'0 0.0
2018-Jun-16 12:15N 47°49' W 122°23'0 0.0
2018-Jun-16 12:00N 47°49' W 122°23'0 0.0
2018-Jun-16 11:30N 47°49' W 122°23'0 0.0
2018-Jun-16 10:45N 47°49' W 122°23'0 0.0
2018-Jun-16 10:24N 47°49' W 122°23'0 0.0
2018-Jun-16 06:42N 47°49' W 122°23'0 0.0
2018-Jun-16 06:27N 47°49' W 122°23'0 0.0
2018-Jun-16 05:54N 47°49' W 122°23'0 0.0
2018-Jun-16 05:24N 47°49' W 122°23'0 0.0
2018-Jun-16 04:54N 47°49' W 122°23'0 0.0
2018-Jun-16 04:24N 47°49' W 122°23'0 0.0
2018-Jun-16 03:54N 47°49' W 122°23'0 0.0
2018-Jun-16 03:30N 47°49' W 122°23'0 0.0
2018-Jun-16 02:57N 47°49' W 122°23'0 0.0
2018-Jun-16 02:30N 47°49' W 122°23'0 0.0
2018-Jun-16 01:57N 47°49' W 122°23'0 0.0
2018-Jun-16 01:24N 47°49' W 122°23'0 0.0
2018-Jun-16 00:36N 47°49' W 122°23'0 0.0
2018-Jun-16 00:27N 47°49' W 122°23'0 0.0
2018-Jun-15 22:42N 47°49' W 122°23'0 0.0
2018-Jun-15 17:48N 47°49' W 122°23'0 0.0
2018-Jun-15 17:30N 47°49' W 122°23'0 0.0
2018-Jun-15 15:30N 47°49' W 122°23'0 0.0
2018-Jun-15 15:00N 47°49' W 122°23'0 0.0
2018-Jun-15 14:18N 47°49' W 122°23'0 0.0
2018-Jun-15 14:00N 47°49' W 122°23'0 0.0
2018-Jun-15 13:30N 47°49' W 122°23'0 0.0
2018-Jun-15 13:00N 47°49' W 122°23'0 0.0
2018-Jun-15 12:30N 47°49' W 122°23'0 0.0
2018-Jun-15 12:00N 47°49' W 122°23'0 0.0
2018-Jun-15 11:30N 47°49' W 122°23'0 0.0
2018-Jun-15 11:00N 47°49' W 122°23'0 0.0
2018-Jun-15 10:30N 47°49' W 122°23'0 0.0
2018-Jun-15 10:00N 47°49' W 122°23'0 0.0
2018-Jun-15 09:27N 47°49' W 122°23'0 0.0
2018-Jun-15 08:48N 47°49' W 122°23'0 0.0
2018-Jun-15 08:12N 47°49' W 122°23'0 0.0
2018-Jun-15 07:39N 47°49' W 122°23'0 0.0
2018-Jun-15 07:24N 47°49' W 122°23'0 0.0
2018-Jun-15 06:36N 47°49' W 122°23'0 0.0
2018-Jun-15 06:24N 47°49' W 122°23'0 0.0
2018-Jun-15 05:45N 47°49' W 122°23'0 0.0
2018-Jun-15 05:30N 47°49' W 122°23'0 0.0
2018-Jun-15 05:00N 47°49' W 122°23'0 0.0
2018-Jun-15 04:30N 47°49' W 122°23'0 0.0
2018-Jun-15 03:57N 47°49' W 122°23'0 0.0
2018-Jun-15 03:24N 47°49' W 122°23'0 0.0
2018-Jun-15 03:00N 47°49' W 122°23'0 0.0
2018-Jun-15 02:27N 47°49' W 122°23'0 0.0
2018-Jun-15 02:00N 47°49' W 122°23'0 0.0
2018-Jun-15 01:30N 47°49' W 122°23'0 0.0
2018-Jun-15 01:00N 47°49' W 122°23'0 0.0
2018-Jun-15 00:30N 47°49' W 122°23'0 0.0
2018-Jun-14 23:57N 47°49' W 122°23'0 0.0
2018-Jun-14 23:27N 47°49' W 122°23'0 0.0
2018-Jun-14 23:00N 47°49' W 122°23'0 0.0
2018-Jun-14 22:24N 47°49' W 122°23'0 0.0
2018-Jun-14 22:00N 47°49' W 122°23'0 0.0
2018-Jun-14 21:30N 47°49' W 122°23'0 0.0
2018-Jun-14 20:24N 47°49' W 122°23'0 0.0
2018-Jun-14 20:00N 47°49' W 122°23'0 0.0
2018-Jun-14 18:50N 47°49' W 122°24'2 5.7
2018-Jun-14 18:30N 47°47' W 122°24'4 7.4
2018-Jun-14 18:00N 47°43' W 122°25'3 7.0
2018-Jun-14 17:30N 47°40' W 122°27'3 5.9
2018-Jun-14 17:00N 47°38' W 122°23'0 0.0
2018-Jun-14 16:28N 47°38' W 122°23'0 0.0
2018-Jun-14 15:58N 47°38' W 122°23'0 0.0
2018-Jun-14 15:28N 47°38' W 122°23'0 0.0
2018-Jun-14 14:58N 47°38' W 122°23'0 0.0
2018-Jun-14 14:28N 47°38' W 122°23'0 0.0
2018-Jun-14 13:58N 47°38' W 122°23'0 0.0
2018-Jun-14 13:28N 47°38' W 122°23'0 0.0
2018-Jun-14 12:58N 47°38' W 122°23'0 0.0
2018-Jun-14 12:28N 47°38' W 122°23'0 0.0
2018-Jun-14 11:58N 47°38' W 122°23'0 0.0
2018-Jun-14 11:28N 47°38' W 122°23'0 0.0
2018-Jun-14 10:58N 47°38' W 122°23'0 0.0
2018-Jun-14 10:28N 47°38' W 122°23'0 0.0
2018-Jun-14 09:58N 47°38' W 122°23'0 0.0
2018-Jun-14 09:28N 47°38' W 122°23'0 0.0
2018-Jun-14 08:58N 47°38' W 122°23'0 0.0
2018-Jun-14 08:28N 47°38' W 122°23'0 0.0
2018-Jun-14 07:58N 47°38' W 122°23'0 0.0
2018-Jun-14 07:28N 47°38' W 122°23'0 0.0
2018-Jun-14 06:58N 47°38' W 122°23'0 0.0
2018-Jun-14 06:28N 47°38' W 122°23'0 0.0
2018-Jun-14 05:58N 47°38' W 122°23'0 0.0
2018-Jun-14 05:28N 47°38' W 122°23'0 0.0
2018-Jun-14 04:58N 47°38' W 122°23'0 0.0
2018-Jun-14 04:28N 47°38' W 122°23'0 0.0
2018-Jun-14 03:58N 47°38' W 122°23'0 0.0
2018-Jun-14 03:28N 47°38' W 122°23'0 0.0
2018-Jun-14 02:58N 47°38' W 122°23'0 0.0
2018-Jun-14 02:28N 47°38' W 122°23'0 0.0
2018-Jun-14 01:58N 47°38' W 122°23'0 0.0
2018-Jun-14 01:31N 47°38' W 122°23'0 0.0
2018-Jun-14 01:00N 47°38' W 122°23'0 0.0
2018-Jun-14 00:30N 47°38' W 122°23'0 0.0
2018-Jun-14 00:00N 47°38' W 122°23'0 0.0
2018-Jun-13 23:30N 47°38' W 122°23'0 0.0
2018-Jun-13 23:00N 47°38' W 122°23'0 0.0
2018-Jun-13 22:30N 47°38' W 122°23'0 0.0
2018-Jun-13 22:00N 47°38' W 122°23'0 0.0
2018-Jun-13 21:30N 47°38' W 122°23'0 0.0
2018-Jun-13 21:00N 47°38' W 122°23'0 0.0
2018-Jun-13 20:30N 47°38' W 122°23'0 0.0
2018-Jun-13 20:00N 47°38' W 122°23'0 0.0
2018-Jun-13 19:30N 47°38' W 122°23'0 0.0
2018-Jun-13 19:00N 47°38' W 122°23'0 0.0
2018-Jun-13 18:30N 47°38' W 122°23'0 0.0
2018-Jun-13 18:00N 47°38' W 122°23'0 0.0
2018-Jun-13 17:30N 47°38' W 122°23'0 0.0
2018-Jun-13 17:00N 47°38' W 122°23'0 0.0
2018-Jun-13 16:30N 47°38' W 122°23'0 0.0
2018-Jun-13 16:00N 47°38' W 122°23'0 0.0
2018-Jun-13 15:30N 47°38' W 122°23'0 0.0
2018-Jun-13 15:00N 47°38' W 122°23'0 0.0
2018-Jun-13 14:30N 47°38' W 122°23'0 0.0
2018-Jun-13 14:00N 47°38' W 122°23'0 0.0
2018-Jun-13 13:30N 47°38' W 122°23'0 0.0
2018-Jun-13 13:00N 47°38' W 122°23'0 0.0
2018-Jun-13 12:30N 47°38' W 122°23'0 0.0
2018-Jun-13 12:00N 47°38' W 122°23'0 0.0
2018-Jun-13 11:30N 47°38' W 122°23'0 0.0
2018-Jun-13 11:00N 47°38' W 122°23'0 0.0
2018-Jun-13 10:30N 47°38' W 122°23'0 0.0
2018-Jun-13 10:00N 47°38' W 122°23'0 0.0
2018-Jun-13 09:30N 47°38' W 122°23'0 0.0
2018-Jun-13 09:00N 47°38' W 122°23'0 0.0
2018-Jun-13 08:30N 47°38' W 122°23'0 0.0
2018-Jun-13 08:00N 47°38' W 122°23'0 0.0
2018-Jun-13 07:30N 47°38' W 122°23'0 0.0
2018-Jun-13 07:00N 47°38' W 122°23'0 0.0
2018-Jun-13 06:30N 47°38' W 122°23'0 0.0
2018-Jun-13 06:00N 47°38' W 122°23'0 0.0
2018-Jun-13 05:30N 47°38' W 122°23'0 0.0
2018-Jun-13 05:00N 47°38' W 122°23'0 0.0
2018-Jun-13 04:30N 47°38' W 122°23'0 0.0
2018-Jun-13 04:00N 47°38' W 122°23'0 0.0
2018-Jun-13 03:30N 47°38' W 122°23'0 0.0
2018-Jun-13 03:00N 47°38' W 122°23'0 0.0
2018-Jun-13 02:30N 47°38' W 122°23'0 0.0
2018-Jun-13 02:00N 47°38' W 122°23'0 0.0
2018-Jun-13 01:30N 47°38' W 122°23'0 0.0
2018-Jun-13 01:00N 47°38' W 122°23'0 0.0
2018-Jun-13 00:30N 47°38' W 122°23'0 0.0
2018-Jun-13 00:00N 47°38' W 122°23'0 0.0
2018-Jun-12 23:30N 47°38' W 122°23'0 0.0
2018-Jun-12 23:00N 47°38' W 122°23'0 0.0
2018-Jun-12 22:30N 47°38' W 122°23'0 0.0
2018-Jun-12 22:00N 47°38' W 122°23'0 0.0
2018-Jun-12 21:30N 47°38' W 122°23'0 0.0
2018-Jun-12 21:00N 47°38' W 122°23'0 0.0
2018-Jun-12 20:30N 47°38' W 122°23'0 0.0
2018-Jun-12 20:00N 47°38' W 122°23'0 0.0
2018-Jun-12 19:30N 47°38' W 122°23'0 0.0
2018-Jun-12 19:00N 47°38' W 122°23'0 0.0
2018-Jun-12 18:30N 47°38' W 122°23'0 0.0
2018-Jun-12 18:00N 47°38' W 122°23'0 0.0
2018-Jun-12 17:27N 47°38' W 122°23'0 0.0
2018-Jun-12 17:00N 47°38' W 122°23'0 0.0
2018-Jun-12 16:30N 47°38' W 122°23'0 0.0
2018-Jun-12 16:00N 47°38' W 122°23'0 0.0
2018-Jun-12 15:30N 47°38' W 122°23'0 0.0
2018-Jun-12 15:00N 47°38' W 122°23'0 0.0
2018-Jun-12 14:30N 47°38' W 122°23'0 0.0
2018-Jun-12 14:00N 47°38' W 122°23'0 0.0
2018-Jun-12 13:30N 47°38' W 122°23'0 0.0
2018-Jun-12 13:00N 47°38' W 122°23'0 0.0
2018-Jun-12 12:30N 47°38' W 122°23'0 0.0
2018-Jun-12 12:00N 47°38' W 122°23'0 0.0
2018-Jun-12 11:30N 47°38' W 122°23'0 0.0
2018-Jun-12 11:00N 47°38' W 122°23'0 0.0
2018-Jun-12 10:30N 47°38' W 122°23'0 0.0
2018-Jun-12 10:00N 47°38' W 122°23'0 0.0
2018-Jun-12 09:30N 47°38' W 122°23'0 0.0
2018-Jun-12 09:00N 47°38' W 122°23'0 0.0
2018-Jun-12 08:30N 47°38' W 122°23'0 0.0
2018-Jun-12 08:00N 47°38' W 122°23'0 0.0
2018-Jun-12 07:30N 47°38' W 122°23'0 0.0
2018-Jun-12 07:00N 47°38' W 122°23'0 0.0
2018-Jun-12 06:30N 47°38' W 122°23'0 0.0
2018-Jun-12 06:00N 47°38' W 122°23'0 0.0
2018-Jun-12 05:30N 47°38' W 122°23'0 0.0
2018-Jun-12 05:00N 47°38' W 122°23'0 0.0
2018-Jun-12 04:30N 47°38' W 122°23'0 0.0
2018-Jun-12 04:00N 47°38' W 122°23'0 0.0
2018-Jun-12 03:30N 47°38' W 122°23'0 0.0
2018-Jun-12 03:00N 47°38' W 122°23'0 0.0
2018-Jun-12 02:30N 47°38' W 122°23'0 0.0
2018-Jun-12 02:00N 47°38' W 122°23'0 0.0
2018-Jun-12 01:30N 47°38' W 122°23'0 0.0
2018-Jun-12 01:00N 47°38' W 122°23'0 0.0
2018-Jun-12 00:27N 47°38' W 122°23'0 0.0
2018-Jun-12 00:00N 47°38' W 122°23'0 0.0
2018-Jun-11 23:27N 47°38' W 122°23'0 0.0
2018-Jun-11 23:00N 47°38' W 122°23'0 0.0
2018-Jun-11 22:30N 47°38' W 122°23'0 0.0
2018-Jun-11 22:00N 47°38' W 122°23'0 0.0
2018-Jun-11 21:30N 47°38' W 122°23'0 0.0
2018-Jun-11 21:00N 47°38' W 122°23'0 0.0
2018-Jun-11 20:30N 47°38' W 122°23'0 0.0
2018-Jun-11 20:00N 47°38' W 122°23'0 0.0
2018-Jun-11 19:30N 47°38' W 122°23'0 0.0
2018-Jun-11 19:00N 47°38' W 122°23'0 0.0
2018-Jun-11 18:30N 47°38' W 122°23'0 0.0
2018-Jun-11 18:00N 47°38' W 122°23'0 0.0
2018-Jun-11 17:30N 47°38' W 122°23'0 0.0
2018-Jun-11 17:00N 47°38' W 122°23'0 0.0
2018-Jun-11 16:30N 47°38' W 122°23'0 0.0
2018-Jun-11 16:00N 47°38' W 122°23'0 0.0
2018-Jun-11 15:30N 47°38' W 122°23'0 0.0
2018-Jun-11 15:00N 47°38' W 122°23'0 0.0
2018-Jun-11 14:30N 47°38' W 122°23'0 0.0
2018-Jun-11 14:00N 47°38' W 122°23'0 0.0
2018-Jun-11 13:30N 47°38' W 122°23'0 0.0
2018-Jun-11 13:00N 47°38' W 122°23'0 0.0
2018-Jun-11 12:30N 47°38' W 122°23'0 0.0
2018-Jun-11 12:00N 47°38' W 122°23'0 0.0
2018-Jun-11 11:30N 47°38' W 122°23'0 0.0
2018-Jun-11 11:00N 47°38' W 122°23'0 0.0
2018-Jun-11 10:30N 47°38' W 122°23'0 0.0
2018-Jun-11 10:00N 47°38' W 122°23'0 0.0
2018-Jun-11 09:30N 47°38' W 122°23'0 0.0
2018-Jun-11 09:00N 47°38' W 122°23'0 0.0
2018-Jun-11 08:30N 47°38' W 122°23'0 0.0
2018-Jun-11 08:00N 47°38' W 122°23'0 0.0
2018-Jun-11 07:30N 47°38' W 122°23'0 0.0
2018-Jun-11 07:00N 47°38' W 122°23'0 0.0
2018-Jun-11 06:30N 47°38' W 122°23'0 0.0
2018-Jun-11 06:00N 47°38' W 122°23'0 0.0
2018-Jun-11 05:30N 47°38' W 122°23'0 0.0
2018-Jun-11 05:00N 47°38' W 122°23'0 0.0
2018-Jun-11 04:30N 47°38' W 122°23'0 0.0
2018-Jun-11 04:00N 47°38' W 122°23'0 0.0
2018-Jun-11 03:30N 47°38' W 122°23'0 0.0
2018-Jun-11 03:00N 47°38' W 122°23'0 0.0
2018-Jun-11 02:30N 47°38' W 122°23'0 0.0
2018-Jun-11 02:00N 47°38' W 122°23'0 0.0
2018-Jun-11 01:30N 47°38' W 122°23'0 0.0
2018-Jun-11 01:00N 47°38' W 122°23'0 0.0
2018-Jun-11 00:30N 47°38' W 122°23'0 0.0
2018-Jun-11 00:00N 47°38' W 122°23'0 0.0
2018-Jun-10 23:30N 47°38' W 122°23'0 0.0
2018-Jun-10 23:00N 47°38' W 122°23'0 0.0
2018-Jun-10 22:30N 47°38' W 122°23'0 0.0
2018-Jun-10 22:00N 47°38' W 122°23'0 0.0
2018-Jun-10 21:30N 47°38' W 122°23'0 0.0
2018-Jun-10 21:00N 47°38' W 122°23'0 0.0
2018-Jun-10 20:30N 47°38' W 122°23'0 0.0
2018-Jun-10 20:00N 47°38' W 122°23'0 0.0
2018-Jun-10 19:30N 47°38' W 122°23'0 0.0
2018-Jun-10 19:00N 47°38' W 122°23'0 0.0
2018-Jun-10 18:30N 47°38' W 122°23'0 0.0
2018-Jun-10 18:00N 47°38' W 122°23'0 0.0
2018-Jun-10 17:30N 47°38' W 122°23'0 0.0
2018-Jun-10 17:00N 47°38' W 122°23'0 0.0
2018-Jun-10 16:30N 47°38' W 122°23'0 0.0
2018-Jun-10 16:00N 47°38' W 122°23'0 0.0
2018-Jun-10 15:30N 47°38' W 122°23'0 0.0
2018-Jun-10 15:00N 47°38' W 122°23'0 0.0
2018-Jun-10 14:30N 47°38' W 122°23'0 0.0
2018-Jun-10 13:30N 47°38' W 122°23'0 0.0
2018-Jun-10 13:00N 47°38' W 122°23'0 0.0
2018-Jun-10 12:30N 47°38' W 122°23'0 0.0
2018-Jun-10 12:00N 47°38' W 122°23'0 0.0
2018-Jun-10 11:30N 47°38' W 122°23'0 0.0
2018-Jun-10 11:00N 47°38' W 122°23'0 0.0
2018-Jun-10 10:29N 47°38' W 122°23'0 0.0
2018-Jun-10 09:59N 47°38' W 122°23'0 0.0
2018-Jun-10 09:29N 47°38' W 122°23'0 0.0
2018-Jun-10 08:59N 47°38' W 122°23'0 0.0
2018-Jun-10 08:29N 47°38' W 122°23'0 0.0
2018-Jun-10 07:59N 47°38' W 122°23'0 0.0
2018-Jun-10 07:29N 47°38' W 122°23'0 0.0
2018-Jun-10 06:59N 47°38' W 122°23'0 0.0
2018-Jun-10 06:29N 47°38' W 122°23'0 0.0
2018-Jun-10 05:59N 47°38' W 122°23'0 0.0
2018-Jun-10 05:29N 47°38' W 122°23'0 0.0
2018-Jun-10 04:59N 47°38' W 122°23'0 0.0
2018-Jun-10 04:29N 47°38' W 122°23'0 0.0
2018-Jun-10 03:59N 47°38' W 122°23'0 0.0
2018-Jun-10 03:29N 47°38' W 122°23'0 0.0
2018-Jun-10 02:59N 47°38' W 122°23'0 0.0
2018-Jun-10 02:29N 47°38' W 122°23'0 0.0
2018-Jun-10 01:59N 47°38' W 122°23'0 0.0
2018-Jun-10 01:29N 47°38' W 122°23'0 0.0
2018-Jun-10 00:59N 47°38' W 122°23'0 0.0
2018-Jun-10 00:29N 47°38' W 122°23'0 0.0
2018-Jun-09 23:59N 47°38' W 122°23'0 0.0
2018-Jun-09 23:29N 47°38' W 122°23'0 0.0
2018-Jun-09 22:58N 47°38' W 122°23'1 1.9
2018-Jun-09 22:29N 47°38' W 122°25'1 2.8
2018-Jun-09 22:00N 47°37' W 122°23'1 2.2
2018-Jun-09 21:30N 47°37' W 122°22'1 3.0
2018-Jun-09 21:00N 47°38' W 122°24'1 1.0
2018-Jun-09 20:28N 47°38' W 122°24'1 1.3
2018-Jun-09 20:00N 47°38' W 122°23'0 0.0
2018-Jun-09 19:21N 47°38' W 122°23'0 0.0
2018-Jun-09 18:57N 47°38' W 122°23'0 0.0
2018-Jun-09 18:30N 47°38' W 122°23'0 0.0
2018-Jun-09 18:00N 47°38' W 122°23'0 0.0
2018-Jun-09 17:30N 47°38' W 122°23'0 0.0
2018-Jun-09 17:00N 47°38' W 122°23'0 0.0
2018-Jun-09 16:30N 47°38' W 122°23'0 0.0
2018-Jun-09 16:00N 47°38' W 122°23'0 0.0
2018-Jun-09 15:00N 47°38' W 122°23'  
Track history (hours):
 
Tides and Currents Weather Stations Pressure Air Temp Water Temp Dewpoint Dewpoint Depression Visibility Wind Speed Wind Dir Waves Ship Positions

Restless

Owner: Barrow, Ronnie L, Shoreline, WA. More information available from US FCC via Universal Licensing System and Coast Guard Vessel Documentation Center.

Last reported at 2018-Jun-19 14:48 UTC. Time now 2018-Jun-22 03:15 UTC.
Position N 48°43' W 123°22'.

Length 12 m.

Type: Sailing vessel. MMSI: 367071510.

Date/timePositionNaut miles runAvg speedWind from/ knotsBaromVisibWave heightAir tempDewpointWater temp
2018-Jun-19 14:48N 48°43' W 123°22'4 0.1
2018-Jun-17 21:04N 48°39' W 123°23'0 5.8
2018-Jun-17 20:59N 48°39' W 123°22'14 4.7
2018-Jun-17 18:00N 48°35' W 123°02'1 2.0
2018-Jun-17 17:29N 48°34' W 123°00'1 2.6
2018-Jun-17 17:00N 48°33' W 122°60'1 1.8
2018-Jun-17 16:17N 48°32' W 123°00'42 1.7
2018-Jun-16 15:57N 47°56' W 122°29'3 7.3
2018-Jun-16 15:29N 47°53' W 122°27'3 6.1
2018-Jun-16 14:57N 47°50' W 122°25'2 2.6
2018-Jun-16 14:21N 47°49' W 122°23'0 0.0
2018-Jun-16 14:00N 47°49' W 122°23'0 0.0
2018-Jun-16 13:30N 47°49' W 122°23'0 0.0
2018-Jun-16 12:15N 47°49' W 122°23'0 0.0
2018-Jun-16 12:00N 47°49' W 122°23'0 0.0
2018-Jun-16 11:30N 47°49' W 122°23'0 0.0
2018-Jun-16 10:45N 47°49' W 122°23'0 0.0
2018-Jun-16 10:24N 47°49' W 122°23'0 0.0
2018-Jun-16 06:42N 47°49' W 122°23'0 0.0
2018-Jun-16 06:27N 47°49' W 122°23'0 0.0
2018-Jun-16 05:54N 47°49' W 122°23'0 0.0
2018-Jun-16 05:24N 47°49' W 122°23'0 0.0
2018-Jun-16 04:54N 47°49' W 122°23'0 0.0
2018-Jun-16 04:24N 47°49' W 122°23'0 0.0
2018-Jun-16 03:54N 47°49' W 122°23'0 0.0
2018-Jun-16 03:30N 47°49' W 122°23'0 0.0
2018-Jun-16 02:57N 47°49' W 122°23'0 0.0
2018-Jun-16 02:30N 47°49' W 122°23'0 0.0
2018-Jun-16 01:57N 47°49' W 122°23'0 0.0
2018-Jun-16 01:24N 47°49' W 122°23'0 0.0
2018-Jun-16 00:36N 47°49' W 122°23'0 0.0
2018-Jun-16 00:27N 47°49' W 122°23'0 0.0
2018-Jun-15 22:42N 47°49' W 122°23'0 0.0
2018-Jun-15 17:48N 47°49' W 122°23'0 0.0
2018-Jun-15 17:30N 47°49' W 122°23'0 0.0
2018-Jun-15 15:30N 47°49' W 122°23'0 0.0
2018-Jun-15 15:00N 47°49' W 122°23'0 0.0
2018-Jun-15 14:18N 47°49' W 122°23'0 0.0
2018-Jun-15 14:00N 47°49' W 122°23'0 0.0
2018-Jun-15 13:30N 47°49' W 122°23'0 0.0
2018-Jun-15 13:00N 47°49' W 122°23'0 0.0
2018-Jun-15 12:30N 47°49' W 122°23'0 0.0
2018-Jun-15 12:00N 47°49' W 122°23'0 0.0
2018-Jun-15 11:30N 47°49' W 122°23'0 0.0
2018-Jun-15 11:00N 47°49' W 122°23'0 0.0
2018-Jun-15 10:30N 47°49' W 122°23'0 0.0
2018-Jun-15 10:00N 47°49' W 122°23'0 0.0
2018-Jun-15 09:27N 47°49' W 122°23'0 0.0
2018-Jun-15 08:48N 47°49' W 122°23'0 0.0
2018-Jun-15 08:12N 47°49' W 122°23'0 0.0
2018-Jun-15 07:39N 47°49' W 122°23'0 0.0
2018-Jun-15 07:24N 47°49' W 122°23'0 0.0
2018-Jun-15 06:36N 47°49' W 122°23'0 0.0
2018-Jun-15 06:24N 47°49' W 122°23'0 0.0
2018-Jun-15 05:45N 47°49' W 122°23'0 0.0
2018-Jun-15 05:30N 47°49' W 122°23'0 0.0
2018-Jun-15 05:00N 47°49' W 122°23'0 0.0
2018-Jun-15 04:30N 47°49' W 122°23'0 0.0
2018-Jun-15 03:57N 47°49' W 122°23'0 0.0
2018-Jun-15 03:24N 47°49' W 122°23'0 0.0
2018-Jun-15 03:00N 47°49' W 122°23'0 0.0
2018-Jun-15 02:27N 47°49' W 122°23'0 0.0
2018-Jun-15 02:00N 47°49' W 122°23'0 0.0
2018-Jun-15 01:30N 47°49' W 122°23'0 0.0
2018-Jun-15 01:00N 47°49' W 122°23'0 0.0
2018-Jun-15 00:30N 47°49' W 122°23'0 0.0
2018-Jun-14 23:57N 47°49' W 122°23'0 0.0
2018-Jun-14 23:27N 47°49' W 122°23'0 0.0
2018-Jun-14 23:00N 47°49' W 122°23'0 0.0
2018-Jun-14 22:24N 47°49' W 122°23'0 0.0
2018-Jun-14 22:00N 47°49' W 122°23'0 0.0
2018-Jun-14 21:30N 47°49' W 122°23'0 0.0
2018-Jun-14 20:24N 47°49' W 122°23'0 0.0
2018-Jun-14 20:00N 47°49' W 122°23'0 0.0
2018-Jun-14 18:50N 47°49' W 122°24'2 5.7
2018-Jun-14 18:30N 47°47' W 122°24'4 7.4
2018-Jun-14 18:00N 47°43' W 122°25'3 7.0
2018-Jun-14 17:30N 47°40' W 122°27'3 5.9
2018-Jun-14 17:00N 47°38' W 122°23'0 0.0
2018-Jun-14 16:28N 47°38' W 122°23'0 0.0
2018-Jun-14 15:58N 47°38' W 122°23'0 0.0
2018-Jun-14 15:28N 47°38' W 122°23'0 0.0
2018-Jun-14 14:58N 47°38' W 122°23'0 0.0
2018-Jun-14 14:28N 47°38' W 122°23'0 0.0
2018-Jun-14 13:58N 47°38' W 122°23'0 0.0
2018-Jun-14 13:28N 47°38' W 122°23'0 0.0
2018-Jun-14 12:58N 47°38' W 122°23'0 0.0
2018-Jun-14 12:28N 47°38' W 122°23'0 0.0
2018-Jun-14 11:58N 47°38' W 122°23'0 0.0
2018-Jun-14 11:28N 47°38' W 122°23'0 0.0
2018-Jun-14 10:58N 47°38' W 122°23'0 0.0
2018-Jun-14 10:28N 47°38' W 122°23'0 0.0
2018-Jun-14 09:58N 47°38' W 122°23'0 0.0
2018-Jun-14 09:28N 47°38' W 122°23'0 0.0
2018-Jun-14 08:58N 47°38' W 122°23'0 0.0
2018-Jun-14 08:28N 47°38' W 122°23'0 0.0
2018-Jun-14 07:58N 47°38' W 122°23'0 0.0
2018-Jun-14 07:28N 47°38' W 122°23'0 0.0
2018-Jun-14 06:58N 47°38' W 122°23'0 0.0
2018-Jun-14 06:28N 47°38' W 122°23'0 0.0
2018-Jun-14 05:58N 47°38' W 122°23'0 0.0
2018-Jun-14 05:28N 47°38' W 122°23'0 0.0
2018-Jun-14 04:58N 47°38' W 122°23'0 0.0
2018-Jun-14 04:28N 47°38' W 122°23'0 0.0
2018-Jun-14 03:58N 47°38' W 122°23'0 0.0
2018-Jun-14 03:28N 47°38' W 122°23'0 0.0
2018-Jun-14 02:58N 47°38' W 122°23'0 0.0
2018-Jun-14 02:28N 47°38' W 122°23'0 0.0
2018-Jun-14 01:58N 47°38' W 122°23'0 0.0
2018-Jun-14 01:31N 47°38' W 122°23'0 0.0
2018-Jun-14 01:00N 47°38' W 122°23'0 0.0
2018-Jun-14 00:30N 47°38' W 122°23'0 0.0
2018-Jun-14 00:00N 47°38' W 122°23'0 0.0
2018-Jun-13 23:30N 47°38' W 122°23'0 0.0
2018-Jun-13 23:00N 47°38' W 122°23'0 0.0
2018-Jun-13 22:30N 47°38' W 122°23'0 0.0
2018-Jun-13 22:00N 47°38' W 122°23'0 0.0
2018-Jun-13 21:30N 47°38' W 122°23'0 0.0
2018-Jun-13 21:00N 47°38' W 122°23'0 0.0
2018-Jun-13 20:30N 47°38' W 122°23'0 0.0
2018-Jun-13 20:00N 47°38' W 122°23'0 0.0
2018-Jun-13 19:30N 47°38' W 122°23'0 0.0
2018-Jun-13 19:00N 47°38' W 122°23'0 0.0
2018-Jun-13 18:30N 47°38' W 122°23'0 0.0
2018-Jun-13 18:00N 47°38' W 122°23'0 0.0
2018-Jun-13 17:30N 47°38' W 122°23'0 0.0
2018-Jun-13 17:00N 47°38' W 122°23'0 0.0
2018-Jun-13 16:30N 47°38' W 122°23'0 0.0
2018-Jun-13 16:00N 47°38' W 122°23'0 0.0
2018-Jun-13 15:30N 47°38' W 122°23'0 0.0
2018-Jun-13 15:00N 47°38' W 122°23'0 0.0
2018-Jun-13 14:30N 47°38' W 122°23'0 0.0
2018-Jun-13 14:00N 47°38' W 122°23'0 0.0
2018-Jun-13 13:30N 47°38' W 122°23'0 0.0
2018-Jun-13 13:00N 47°38' W 122°23'0 0.0
2018-Jun-13 12:30N 47°38' W 122°23'0 0.0
2018-Jun-13 12:00N 47°38' W 122°23'0 0.0
2018-Jun-13 11:30N 47°38' W 122°23'0 0.0
2018-Jun-13 11:00N 47°38' W 122°23'0 0.0
2018-Jun-13 10:30N 47°38' W 122°23'0 0.0
2018-Jun-13 10:00N 47°38' W 122°23'0 0.0
2018-Jun-13 09:30N 47°38' W 122°23'0 0.0
2018-Jun-13 09:00N 47°38' W 122°23'0 0.0
2018-Jun-13 08:30N 47°38' W 122°23'0 0.0
2018-Jun-13 08:00N 47°38' W 122°23'0 0.0
2018-Jun-13 07:30N 47°38' W 122°23'0 0.0
2018-Jun-13 07:00N 47°38' W 122°23'0 0.0
2018-Jun-13 06:30N 47°38' W 122°23'0 0.0
2018-Jun-13 06:00N 47°38' W 122°23'0 0.0
2018-Jun-13 05:30N 47°38' W 122°23'0 0.0
2018-Jun-13 05:00N 47°38' W 122°23'0 0.0
2018-Jun-13 04:30N 47°38' W 122°23'0 0.0
2018-Jun-13 04:00N 47°38' W 122°23'0 0.0
2018-Jun-13 03:30N 47°38' W 122°23'0 0.0
2018-Jun-13 03:00N 47°38' W 122°23'0 0.0
2018-Jun-13 02:30N 47°38' W 122°23'0 0.0
2018-Jun-13 02:00N 47°38' W 122°23'0 0.0
2018-Jun-13 01:30N 47°38' W 122°23'0 0.0
2018-Jun-13 01:00N 47°38' W 122°23'0 0.0
2018-Jun-13 00:30N 47°38' W 122°23'0 0.0
2018-Jun-13 00:00N 47°38' W 122°23'0 0.0
2018-Jun-12 23:30N 47°38' W 122°23'0 0.0
2018-Jun-12 23:00N 47°38' W 122°23'0 0.0
2018-Jun-12 22:30N 47°38' W 122°23'0 0.0
2018-Jun-12 22:00N 47°38' W 122°23'0 0.0
2018-Jun-12 21:30N 47°38' W 122°23'0 0.0
2018-Jun-12 21:00N 47°38' W 122°23'0 0.0
2018-Jun-12 20:30N 47°38' W 122°23'0 0.0
2018-Jun-12 20:00N 47°38' W 122°23'0 0.0
2018-Jun-12 19:30N 47°38' W 122°23'0 0.0
2018-Jun-12 19:00N 47°38' W 122°23'0 0.0
2018-Jun-12 18:30N 47°38' W 122°23'0 0.0
2018-Jun-12 18:00N 47°38' W 122°23'0 0.0
2018-Jun-12 17:27N 47°38' W 122°23'0 0.0
2018-Jun-12 17:00N 47°38' W 122°23'0 0.0
2018-Jun-12 16:30N 47°38' W 122°23'0 0.0
2018-Jun-12 16:00N 47°38' W 122°23'0 0.0
2018-Jun-12 15:30N 47°38' W 122°23'0 0.0
2018-Jun-12 15:00N 47°38' W 122°23'0 0.0
2018-Jun-12 14:30N 47°38' W 122°23'0 0.0
2018-Jun-12 14:00N 47°38' W 122°23'0 0.0
2018-Jun-12 13:30N 47°38' W 122°23'0 0.0
2018-Jun-12 13:00N 47°38' W 122°23'0 0.0
2018-Jun-12 12:30N 47°38' W 122°23'0 0.0
2018-Jun-12 12:00N 47°38' W 122°23'0 0.0
2018-Jun-12 11:30N 47°38' W 122°23'0 0.0
2018-Jun-12 11:00N 47°38' W 122°23'0 0.0
2018-Jun-12 10:30N 47°38' W 122°23'0 0.0
2018-Jun-12 10:00N 47°38' W 122°23'0 0.0
2018-Jun-12 09:30N 47°38' W 122°23'0 0.0
2018-Jun-12 09:00N 47°38' W 122°23'0 0.0
2018-Jun-12 08:30N 47°38' W 122°23'0 0.0
2018-Jun-12 08:00N 47°38' W 122°23'0 0.0
2018-Jun-12 07:30N 47°38' W 122°23'0 0.0
2018-Jun-12 07:00N 47°38' W 122°23'0 0.0
2018-Jun-12 06:30N 47°38' W 122°23'0 0.0
2018-Jun-12 06:00N 47°38' W 122°23'0 0.0
2018-Jun-12 05:30N 47°38' W 122°23'0 0.0
2018-Jun-12 05:00N 47°38' W 122°23'0 0.0
2018-Jun-12 04:30N 47°38' W 122°23'0 0.0
2018-Jun-12 04:00N 47°38' W 122°23'0 0.0
2018-Jun-12 03:30N 47°38' W 122°23'0 0.0
2018-Jun-12 03:00N 47°38' W 122°23'0 0.0
2018-Jun-12 02:30N 47°38' W 122°23'0 0.0
2018-Jun-12 02:00N 47°38' W 122°23'0 0.0
2018-Jun-12 01:30N 47°38' W 122°23'0 0.0
2018-Jun-12 01:00N 47°38' W 122°23'0 0.0
2018-Jun-12 00:27N 47°38' W 122°23'0 0.0
2018-Jun-12 00:00N 47°38' W 122°23'0 0.0
2018-Jun-11 23:27N 47°38' W 122°23'0 0.0
2018-Jun-11 23:00N 47°38' W 122°23'0 0.0
2018-Jun-11 22:30N 47°38' W 122°23'0 0.0
2018-Jun-11 22:00N 47°38' W 122°23'0 0.0
2018-Jun-11 21:30N 47°38' W 122°23'0 0.0
2018-Jun-11 21:00N 47°38' W 122°23'0 0.0
2018-Jun-11 20:30N 47°38' W 122°23'0 0.0
2018-Jun-11 20:00N 47°38' W 122°23'0 0.0
2018-Jun-11 19:30N 47°38' W 122°23'0 0.0
2018-Jun-11 19:00N 47°38' W 122°23'0 0.0
2018-Jun-11 18:30N 47°38' W 122°23'0 0.0
2018-Jun-11 18:00N 47°38' W 122°23'0 0.0
2018-Jun-11 17:30N 47°38' W 122°23'0 0.0
2018-Jun-11 17:00N 47°38' W 122°23'0 0.0
2018-Jun-11 16:30N 47°38' W 122°23'0 0.0
2018-Jun-11 16:00N 47°38' W 122°23'0 0.0
2018-Jun-11 15:30N 47°38' W 122°23'0 0.0
2018-Jun-11 15:00N 47°38' W 122°23'0 0.0
2018-Jun-11 14:30N 47°38' W 122°23'0 0.0
2018-Jun-11 14:00N 47°38' W 122°23'0 0.0
2018-Jun-11 13:30N 47°38' W 122°23'0 0.0
2018-Jun-11 13:00N 47°38' W 122°23'0 0.0
2018-Jun-11 12:30N 47°38' W 122°23'0 0.0
2018-Jun-11 12:00N 47°38' W 122°23'0 0.0
2018-Jun-11 11:30N 47°38' W 122°23'0 0.0
2018-Jun-11 11:00N 47°38' W 122°23'0 0.0
2018-Jun-11 10:30N 47°38' W 122°23'0 0.0
2018-Jun-11 10:00N 47°38' W 122°23'0 0.0
2018-Jun-11 09:30N 47°38' W 122°23'0 0.0
2018-Jun-11 09:00N 47°38' W 122°23'0 0.0
2018-Jun-11 08:30N 47°38' W 122°23'0 0.0
2018-Jun-11 08:00N 47°38' W 122°23'0 0.0
2018-Jun-11 07:30N 47°38' W 122°23'0 0.0
2018-Jun-11 07:00N 47°38' W 122°23'0 0.0
2018-Jun-11 06:30N 47°38' W 122°23'0 0.0
2018-Jun-11 06:00N 47°38' W 122°23'0 0.0
2018-Jun-11 05:30N 47°38' W 122°23'0 0.0
2018-Jun-11 05:00N 47°38' W 122°23'0 0.0
2018-Jun-11 04:30N 47°38' W 122°23'0 0.0
2018-Jun-11 04:00N 47°38' W 122°23'0 0.0
2018-Jun-11 03:30N 47°38' W 122°23'0 0.0
2018-Jun-11 03:00N 47°38' W 122°23'0 0.0
2018-Jun-11 02:30N 47°38' W 122°23'0 0.0
2018-Jun-11 02:00N 47°38' W 122°23'0 0.0
2018-Jun-11 01:30N 47°38' W 122°23'0 0.0
2018-Jun-11 01:00N 47°38' W 122°23'0 0.0
2018-Jun-11 00:30N 47°38' W 122°23'0 0.0
2018-Jun-11 00:00N 47°38' W 122°23'0 0.0
2018-Jun-10 23:30N 47°38' W 122°23'0 0.0
2018-Jun-10 23:00N 47°38' W 122°23'0 0.0
2018-Jun-10 22:30N 47°38' W 122°23'0 0.0
2018-Jun-10 22:00N 47°38' W 122°23'0 0.0
2018-Jun-10 21:30N 47°38' W 122°23'0 0.0
2018-Jun-10 21:00N 47°38' W 122°23'0 0.0
2018-Jun-10 20:30N 47°38' W 122°23'0 0.0
2018-Jun-10 20:00N 47°38' W 122°23'0 0.0
2018-Jun-10 19:30N 47°38' W 122°23'0 0.0
2018-Jun-10 19:00N 47°38' W 122°23'0 0.0
2018-Jun-10 18:30N 47°38' W 122°23'0 0.0
2018-Jun-10 18:00N 47°38' W 122°23'0 0.0
2018-Jun-10 17:30N 47°38' W 122°23'0 0.0
2018-Jun-10 17:00N 47°38' W 122°23'0 0.0
2018-Jun-10 16:30N 47°38' W 122°23'0 0.0
2018-Jun-10 16:00N 47°38' W 122°23'0 0.0
2018-Jun-10 15:30N 47°38' W 122°23'0 0.0
2018-Jun-10 15:00N 47°38' W 122°23'0 0.0
2018-Jun-10 14:30N 47°38' W 122°23'0 0.0
2018-Jun-10 13:30N 47°38' W 122°23'0 0.0
2018-Jun-10 13:00N 47°38' W 122°23'0 0.0
2018-Jun-10 12:30N 47°38' W 122°23'0 0.0
2018-Jun-10 12:00N 47°38' W 122°23'0 0.0
2018-Jun-10 11:30N 47°38' W 122°23'0 0.0
2018-Jun-10 11:00N 47°38' W 122°23'0 0.0
2018-Jun-10 10:29N 47°38' W 122°23'0 0.0
2018-Jun-10 09:59N 47°38' W 122°23'0 0.0
2018-Jun-10 09:29N 47°38' W 122°23'0 0.0
2018-Jun-10 08:59N 47°38' W 122°23'0 0.0
2018-Jun-10 08:29N 47°38' W 122°23'0 0.0
2018-Jun-10 07:59N 47°38' W 122°23'0 0.0
2018-Jun-10 07:29N 47°38' W 122°23'0 0.0
2018-Jun-10 06:59N 47°38' W 122°23'0 0.0
2018-Jun-10 06:29N 47°38' W 122°23'0 0.0
2018-Jun-10 05:59N 47°38' W 122°23'0 0.0
2018-Jun-10 05:29N 47°38' W 122°23'0 0.0
2018-Jun-10 04:59N 47°38' W 122°23'0 0.0
2018-Jun-10 04:29N 47°38' W 122°23'0 0.0
2018-Jun-10 03:59N 47°38' W 122°23'0 0.0
2018-Jun-10 03:29N 47°38' W 122°23'0 0.0
2018-Jun-10 02:59N 47°38' W 122°23'0 0.0
2018-Jun-10 02:29N 47°38' W 122°23'0 0.0
2018-Jun-10 01:59N 47°38' W 122°23'0 0.0
2018-Jun-10 01:29N 47°38' W 122°23'0 0.0
2018-Jun-10 00:59N 47°38' W 122°23'0 0.0
2018-Jun-10 00:29N 47°38' W 122°23'0 0.0
2018-Jun-09 23:59N 47°38' W 122°23'0 0.0
2018-Jun-09 23:29N 47°38' W 122°23'0 0.0
2018-Jun-09 22:58N 47°38' W 122°23'1 1.9
2018-Jun-09 22:29N 47°38' W 122°25'1 2.8
2018-Jun-09 22:00N 47°37' W 122°23'1 2.2
2018-Jun-09 21:30N 47°37' W 122°22'1 3.0
2018-Jun-09 21:00N 47°38' W 122°24'1 1.0
2018-Jun-09 20:28N 47°38' W 122°24'1 1.3
2018-Jun-09 20:00N 47°38' W 122°23'0 0.0
2018-Jun-09 19:21N 47°38' W 122°23'0 0.0
2018-Jun-09 18:57N 47°38' W 122°23'0 0.0
2018-Jun-09 18:30N 47°38' W 122°23'0 0.0
2018-Jun-09 18:00N 47°38' W 122°23'0 0.0
2018-Jun-09 17:30N 47°38' W 122°23'0 0.0
2018-Jun-09 17:00N 47°38' W 122°23'0 0.0
2018-Jun-09 16:30N 47°38' W 122°23'0 0.0
2018-Jun-09 16:00N 47°38' W 122°23'0 0.0
2018-Jun-09 15:00N 47°38' W 122°23'  

Dump ship's entire track history